createdAt,value
2018-05-08T00:01:58.802Z,69.90
2018-05-08T00:04:26.272Z,69.90
2018-05-08T00:06:53.743Z,70.00
2018-05-08T00:09:21.171Z,69.70
2018-05-08T00:11:48.585Z,70.10
2018-05-08T00:14:16.010Z,70.10
2018-05-08T00:16:43.486Z,70.10
2018-05-08T00:19:11.674Z,70.10
2018-05-08T00:21:39.090Z,70.10
2018-05-08T00:24:06.507Z,70.10
2018-05-08T00:26:33.934Z,70.20
2018-05-08T00:29:01.353Z,70.20
2018-05-08T00:31:29.578Z,70.40
2018-05-08T00:33:57.038Z,70.40
2018-05-08T00:36:24.509Z,71.40
2018-05-08T00:38:51.979Z,70.80
2018-05-08T00:41:19.402Z,70.80
2018-05-08T00:43:46.920Z,70.70
2018-05-08T00:46:14.342Z,70.70
2018-05-08T00:48:41.763Z,70.60
2018-05-08T00:51:09.225Z,70.60
2018-05-08T00:53:36.642Z,70.70
2018-05-08T00:56:04.162Z,70.60
2018-05-08T00:58:31.635Z,70.80
2018-05-08T01:00:59.105Z,70.70
2018-05-08T01:03:26.579Z,71.00
2018-05-08T01:05:54.046Z,70.70
2018-05-08T01:08:21.517Z,70.80
2018-05-08T01:10:48.932Z,70.90
2018-05-08T01:13:16.458Z,70.90
2018-05-08T01:15:43.879Z,71.00
2018-05-08T01:18:11.398Z,71.20
2018-05-08T01:20:38.871Z,71.20
2018-05-08T01:23:06.334Z,71.30
2018-05-08T01:25:33.806Z,71.20
2018-05-08T01:28:01.272Z,71.20
2018-05-08T01:30:28.690Z,71.20
2018-05-08T01:32:56.931Z,71.10
2018-05-08T01:35:24.402Z,71.10
2018-05-08T01:37:51.825Z,71.50
2018-05-08T01:40:19.345Z,71.30
2018-05-08T01:42:46.766Z,71.40
2018-05-08T01:45:14.221Z,71.30
2018-05-08T01:47:41.659Z,71.10
2018-05-08T01:50:09.078Z,71.20
2018-05-08T01:52:36.588Z,71.10
2018-05-08T01:55:04.011Z,71.00
2018-05-08T01:57:31.538Z,71.10
2018-05-08T01:59:58.998Z,70.90
2018-05-08T02:02:26.469Z,71.20
2018-05-08T02:04:53.938Z,71.10
2018-05-08T02:07:21.359Z,71.20
2018-05-08T02:09:48.781Z,71.40
2018-05-08T02:12:16.207Z,71.20
2018-05-08T02:14:43.633Z,71.20
2018-05-08T02:17:11.046Z,71.50
2018-05-08T02:19:39.242Z,71.50
2018-05-08T02:22:07.457Z,71.40
2018-05-08T02:24:34.882Z,71.40
2018-05-08T02:27:02.383Z,71.30
2018-05-08T02:29:29.764Z,71.20
2018-05-08T02:31:57.190Z,71.30
2018-05-08T02:34:24.708Z,71.40
2018-05-08T02:36:52.181Z,71.40
2018-05-08T02:39:19.591Z,71.80
2018-05-08T02:41:48.523Z,71.70
2018-05-08T02:44:16.734Z,71.60
2018-05-08T02:46:44.350Z,71.60
2018-05-08T02:49:11.874Z,71.30
2018-05-08T02:51:39.307Z,71.50
2018-05-08T02:54:06.830Z,71.60
2018-05-08T02:56:34.288Z,71.70
2018-05-08T02:59:01.706Z,72.10
2018-05-08T03:01:29.229Z,72.00
2018-05-08T03:03:56.701Z,72.00
2018-05-08T03:06:24.122Z,72.30
2018-05-08T03:08:51.538Z,72.50
2018-05-08T03:11:18.971Z,72.00
2018-05-08T03:13:46.399Z,72.00
2018-05-08T03:16:13.832Z,72.00
2018-05-08T03:18:41.315Z,72.40
2018-05-08T03:21:08.734Z,72.90
2018-05-08T03:23:36.966Z,73.50
2018-05-08T03:26:04.390Z,73.50
2018-05-08T03:28:31.910Z,74.40
2018-05-08T03:30:59.329Z,74.90
2018-05-08T03:33:26.748Z,75.10
2018-05-08T03:35:54.222Z,75.10
2018-05-08T03:38:21.647Z,74.90
2018-05-08T03:40:50.596Z,75.50
2018-05-08T03:43:18.066Z,75.50
2018-05-08T03:45:45.543Z,75.40
2018-05-08T03:48:12.954Z,75.20
2018-05-08T03:50:40.383Z,75.00
2018-05-08T03:53:08.661Z,75.50
2018-05-08T03:55:36.080Z,76.20
2018-05-08T03:58:03.496Z,76.50
2018-05-08T04:00:42.879Z,76.20
2018-05-08T04:03:22.398Z,76.20
2018-05-08T04:05:58.134Z,76.50
2018-05-08T04:08:32.019Z,76.60
2018-05-08T04:10:59.454Z,76.50
2018-05-08T04:13:26.923Z,76.70
2018-05-08T04:15:54.399Z,76.80
2018-05-08T04:18:21.809Z,77.40
2018-05-08T04:20:49.334Z,77.70
2018-05-08T04:23:16.756Z,77.60
2018-05-08T04:25:44.375Z,77.70
2018-05-08T04:28:11.790Z,78.30
2018-05-08T04:30:39.214Z,78.30
2018-05-08T04:33:06.786Z,78.00
2018-05-08T04:35:34.198Z,77.70
2018-05-08T04:38:01.624Z,77.30
2018-05-08T04:40:29.092Z,77.50
2018-05-08T04:42:56.510Z,77.40
2018-05-08T04:45:25.466Z,77.30
2018-05-08T04:47:52.881Z,77.20
2018-05-08T04:50:20.315Z,77.10
2018-05-08T04:52:47.733Z,76.80
2018-05-08T04:55:15.210Z,76.70
2018-05-08T04:57:43.402Z,76.30
2018-05-08T05:00:11.599Z,76.20
2018-05-08T05:02:39.820Z,76.20
2018-05-08T05:05:07.250Z,76.20
2018-05-08T05:07:35.430Z,76.00
2018-05-08T05:10:03.660Z,76.00
2018-05-08T05:12:31.122Z,76.00
2018-05-08T05:14:58.538Z,76.10
2018-05-08T05:17:27.471Z,75.30
2018-05-08T05:19:55.654Z,74.70
2018-05-08T05:22:23.845Z,74.60
2018-05-08T05:24:52.028Z,74.50
2018-05-08T05:27:20.234Z,74.30
2018-05-08T05:29:47.707Z,74.20
2018-05-08T05:32:15.179Z,74.00
2018-05-08T05:34:42.595Z,74.30
2018-05-08T05:37:10.019Z,73.90
2018-05-08T05:39:37.441Z,73.70
2018-05-08T05:42:04.871Z,74.00
2018-05-08T05:44:32.293Z,73.30
2018-05-08T05:47:00.482Z,73.40
2018-05-08T05:49:28.698Z,73.00
2018-05-08T05:51:56.122Z,72.90
2018-05-08T05:54:23.634Z,77.10
2018-05-08T05:56:51.063Z,77.40
2018-05-08T05:59:18.578Z,74.90
2018-05-08T06:01:46.047Z,74.20
2018-05-08T06:04:13.463Z,73.40
2018-05-08T06:06:40.886Z,71.40
2018-05-08T06:09:08.352Z,70.70
2018-05-08T06:11:35.819Z,71.40
2018-05-08T06:14:03.234Z,69.80
2018-05-08T06:16:30.663Z,69.60
2018-05-08T06:18:58.074Z,70.20
2018-05-08T06:21:25.498Z,69.70
2018-05-08T06:23:52.914Z,69.40
2018-05-08T06:26:20.342Z,69.60
2018-05-08T06:28:47.766Z,69.20
2018-05-08T06:31:15.276Z,69.20
2018-05-08T06:33:42.743Z,69.00
2018-05-08T06:36:10.174Z,68.10
2018-05-08T06:38:39.095Z,68.00
2018-05-08T06:41:07.286Z,67.40
2018-05-08T06:43:35.467Z,67.60
2018-05-08T06:46:03.659Z,66.90
2018-05-08T06:48:31.840Z,67.00
2018-05-08T06:51:00.035Z,67.30
2018-05-08T06:53:28.220Z,68.00
2018-05-08T06:55:56.415Z,66.90
2018-05-08T06:58:24.611Z,66.90
2018-05-08T07:00:52.095Z,66.80
2018-05-08T07:03:19.510Z,67.40
2018-05-08T07:05:47.023Z,65.90
2018-05-08T07:08:14.498Z,67.40
2018-05-08T07:10:41.967Z,66.50
2018-05-08T07:13:09.382Z,67.10
2018-05-08T07:15:37.790Z,66.00
2018-05-08T07:18:05.119Z,65.90
2018-05-08T07:20:32.518Z,65.30
2018-05-08T07:22:59.951Z,65.90
2018-05-08T07:25:27.366Z,66.90
2018-05-08T07:27:55.558Z,67.60
2018-05-08T07:30:23.737Z,65.70
2018-05-08T07:32:51.942Z,63.60
2018-05-08T07:35:20.123Z,66.80
2018-05-08T07:37:48.331Z,66.20
2018-05-08T07:40:15.804Z,66.20
2018-05-08T07:42:43.226Z,65.70
2018-05-08T07:45:10.746Z,65.00
2018-05-08T07:47:38.171Z,65.70
2018-05-08T07:50:05.594Z,61.60
2018-05-08T07:52:33.047Z,62.10
2018-05-08T07:55:00.462Z,62.10
2018-05-08T07:57:28.707Z,63.50
2018-05-08T07:59:56.173Z,63.40
2018-05-08T08:02:23.598Z,62.80
2018-05-08T08:04:51.123Z,63.40
2018-05-08T08:07:18.586Z,62.10
2018-05-08T08:09:46.102Z,63.90
2018-05-08T08:12:13.578Z,64.10
2018-05-08T08:14:40.947Z,61.40
2018-05-08T08:17:08.370Z,59.60
2018-05-08T08:19:35.827Z,61.10
2018-05-08T08:22:03.303Z,61.60
2018-05-08T08:24:30.721Z,61.70
2018-05-08T08:26:58.146Z,61.60
2018-05-08T08:29:25.607Z,59.20
2018-05-08T08:31:53.030Z,58.00
2018-05-08T08:34:20.556Z,57.80
2018-05-08T08:36:48.023Z,56.80
2018-05-08T08:39:15.441Z,57.90
2018-05-08T08:41:42.954Z,60.00
2018-05-08T08:44:10.375Z,57.10
2018-05-08T08:46:38.565Z,54.50
2018-05-08T08:49:06.088Z,54.50
2018-05-08T08:51:33.554Z,56.50
2018-05-08T08:54:00.975Z,54.70
2018-05-08T08:56:29.906Z,57.10
2018-05-08T08:58:58.114Z,55.30
2018-05-08T09:01:25.590Z,55.20
2018-05-08T09:03:53.054Z,55.90
2018-05-08T09:06:20.530Z,53.00
2018-05-08T09:08:47.948Z,52.20
2018-05-08T09:11:15.462Z,52.30
2018-05-08T09:13:42.787Z,54.40
2018-05-08T09:16:10.302Z,52.70
2018-05-08T09:18:37.778Z,53.70
2018-05-08T09:21:05.196Z,54.20
2018-05-08T09:23:32.715Z,52.80
2018-05-08T09:26:00.182Z,54.80
2018-05-08T09:28:27.610Z,57.00
2018-05-08T09:30:55.031Z,52.50
2018-05-08T09:33:22.491Z,51.10
2018-05-08T09:35:49.958Z,48.00
2018-05-08T09:38:17.388Z,47.50
2018-05-08T09:40:44.802Z,47.20
2018-05-08T09:43:12.228Z,47.10
2018-05-08T09:45:39.647Z,48.80
2018-05-08T09:48:07.121Z,48.30
2018-05-08T09:50:34.538Z,47.10
2018-05-08T09:53:01.966Z,44.90
2018-05-08T09:55:29.414Z,45.40
2018-05-08T09:57:56.883Z,47.10
2018-05-08T10:00:24.306Z,45.60
2018-05-08T10:02:51.726Z,44.10
2018-05-08T10:05:19.199Z,45.90
2018-05-08T10:07:46.622Z,45.70
2018-05-08T10:10:14.043Z,46.30
2018-05-08T10:12:41.466Z,41.90
2018-05-08T10:15:09.646Z,39.90
2018-05-08T10:17:37.071Z,39.80
2018-05-08T10:20:04.526Z,38.90
2018-05-08T10:22:31.950Z,38.30
2018-05-08T10:24:59.462Z,41.40
2018-05-08T10:27:26.932Z,40.50
2018-05-08T10:29:54.413Z,40.10
2018-05-08T10:32:21.870Z,37.70
2018-05-08T10:34:49.290Z,39.10
2018-05-08T10:37:16.718Z,37.70
2018-05-08T10:39:44.135Z,39.70
2018-05-08T10:42:12.362Z,40.90
2018-05-08T10:44:39.782Z,40.80
2018-05-08T10:47:07.214Z,36.10
2018-05-08T10:49:34.630Z,35.80
2018-05-08T10:52:02.143Z,33.40
2018-05-08T10:54:29.614Z,34.50
2018-05-08T10:56:57.043Z,32.80
2018-05-08T10:59:24.462Z,34.60
2018-05-08T11:01:51.923Z,34.80
2018-05-08T11:04:19.392Z,36.10
2018-05-08T11:06:46.861Z,33.70
2018-05-08T11:09:14.640Z,33.30
2018-05-08T11:11:42.063Z,34.90
2018-05-08T11:14:09.583Z,34.00
2018-05-08T11:16:37.047Z,32.80
2018-05-08T11:19:04.475Z,32.40
2018-05-08T11:21:31.986Z,33.90
2018-05-08T11:23:59.454Z,34.00
2018-05-08T11:26:26.951Z,33.20
2018-05-08T11:28:54.360Z,30.30
2018-05-08T11:31:21.867Z,30.60
2018-05-08T11:33:49.338Z,33.30
2018-05-08T11:36:16.811Z,33.20
2018-05-08T11:38:44.287Z,32.30
2018-05-08T11:41:11.754Z,32.90
2018-05-08T11:43:39.214Z,29.40
2018-05-08T11:46:06.686Z,30.80
2018-05-08T11:48:34.874Z,32.20
2018-05-08T11:51:02.295Z,32.10
2018-05-08T11:53:29.819Z,28.90
2018-05-08T11:55:57.282Z,29.40
2018-05-08T11:58:24.709Z,31.40
2018-05-08T12:00:52.286Z,30.90
2018-05-08T12:03:19.700Z,31.40
2018-05-08T12:05:47.168Z,29.40
2018-05-08T12:08:14.591Z,28.80
2018-05-08T12:10:42.006Z,28.40
2018-05-08T12:13:09.439Z,29.20
2018-05-08T12:15:37.620Z,30.10
2018-05-08T12:18:05.825Z,29.50
2018-05-08T12:20:34.024Z,28.10
2018-05-08T12:23:02.218Z,29.40
2018-05-08T12:25:29.712Z,29.40
2018-05-08T12:27:57.111Z,28.20
2018-05-08T12:30:24.627Z,27.80
2018-05-08T12:32:52.103Z,27.10
2018-05-08T12:35:19.518Z,28.00
2018-05-08T12:37:47.037Z,27.40
2018-05-08T12:40:14.618Z,28.00
2018-05-08T12:42:42.047Z,26.70
2018-05-08T12:45:09.472Z,27.00
2018-05-08T12:47:36.903Z,27.00
2018-05-08T12:50:05.107Z,27.30
2018-05-08T12:52:32.539Z,27.30
2018-05-08T12:54:59.963Z,28.10
2018-05-08T12:57:27.386Z,27.50
2018-05-08T12:59:55.613Z,27.60
2018-05-08T13:02:23.042Z,27.50
2018-05-08T13:04:50.455Z,26.90
2018-05-08T13:07:17.875Z,26.90
2018-05-08T13:09:45.303Z,27.90
2018-05-08T13:12:12.722Z,29.20
2018-05-08T13:14:40.902Z,28.10
2018-05-08T13:17:09.083Z,27.40
2018-05-08T13:19:36.519Z,27.40
2018-05-08T13:22:03.918Z,26.50
2018-05-08T13:24:31.347Z,26.30
2018-05-08T13:26:58.773Z,26.60
2018-05-08T13:29:26.187Z,27.30
2018-05-08T13:31:53.598Z,26.50
2018-05-08T13:34:21.023Z,26.60
2018-05-08T13:36:48.447Z,26.20
2018-05-08T13:39:16.634Z,27.50
2018-05-08T13:41:44.823Z,28.00
2018-05-08T13:44:13.013Z,26.80
2018-05-08T13:46:41.222Z,28.60
2018-05-08T13:49:09.415Z,27.70
2018-05-08T13:51:36.835Z,27.70
2018-05-08T13:54:04.267Z,28.60
2018-05-08T13:56:31.692Z,29.20
2018-05-08T13:58:59.899Z,28.00
2018-05-08T14:01:27.370Z,28.00
2018-05-08T14:03:54.801Z,28.20
2018-05-08T14:06:23.031Z,28.00
2018-05-08T14:08:50.459Z,28.00
2018-05-08T14:11:17.879Z,28.10
2018-05-08T14:13:45.302Z,27.70
2018-05-08T14:16:13.486Z,27.10
2018-05-08T14:18:41.680Z,27.00
2018-05-08T14:21:09.863Z,26.60
2018-05-08T14:23:38.059Z,26.70
2018-05-08T14:26:06.238Z,27.20
2018-05-08T14:28:34.430Z,27.30
2018-05-08T14:31:02.638Z,27.20
2018-05-08T14:33:30.063Z,27.10
2018-05-08T14:35:58.918Z,27.80
2018-05-08T14:38:26.435Z,27.70
2018-05-08T14:40:53.816Z,27.50
2018-05-08T14:43:21.331Z,26.90
2018-05-08T14:45:48.746Z,26.70
2018-05-08T14:48:16.181Z,26.50
2018-05-08T14:50:43.593Z,26.20
2018-05-08T14:53:11.014Z,26.60
2018-05-08T14:55:38.438Z,26.60
2018-05-08T14:58:06.667Z,25.80
2018-05-08T15:00:34.127Z,25.70
2018-05-08T15:03:01.599Z,26.00
2018-05-08T15:05:29.020Z,26.90
2018-05-08T15:07:56.443Z,26.50
2018-05-08T15:10:24.802Z,25.60
2018-05-08T15:12:52.995Z,26.30
2018-05-08T15:15:21.199Z,27.10
2018-05-08T15:17:48.667Z,27.10
2018-05-08T15:20:16.139Z,27.10
2018-05-08T15:22:43.615Z,25.60
2018-05-08T15:25:11.087Z,25.90
2018-05-08T15:27:38.502Z,26.30
2018-05-08T15:30:05.926Z,26.80
2018-05-08T15:32:33.389Z,26.50
2018-05-08T15:35:00.815Z,25.20
2018-05-08T15:37:28.322Z,25.50
2018-05-08T15:39:55.746Z,25.40
2018-05-08T15:42:23.166Z,25.20
2018-05-08T15:44:50.632Z,26.40
2018-05-08T15:47:18.914Z,26.00
2018-05-08T15:49:46.254Z,25.90
2018-05-08T15:52:14.786Z,25.20
2018-05-08T15:54:42.211Z,25.10
2018-05-08T15:57:09.636Z,25.10
2018-05-08T15:59:37.058Z,25.50
2018-05-08T16:02:05.252Z,25.60
2018-05-08T16:04:33.462Z,26.00
2018-05-08T16:07:00.878Z,26.00
2018-05-08T16:09:28.407Z,26.40
2018-05-08T16:11:55.827Z,25.40
2018-05-08T16:14:23.256Z,25.80
2018-05-08T16:16:50.667Z,25.40
2018-05-08T16:19:18.189Z,25.10
2018-05-08T16:21:45.655Z,25.60
2018-05-08T16:24:13.088Z,25.40
2018-05-08T16:26:41.307Z,26.20
2018-05-08T16:29:08.730Z,26.20
2018-05-08T16:31:36.154Z,26.70
2018-05-08T16:34:03.583Z,26.90
2018-05-08T16:36:31.763Z,27.30
2018-05-08T16:38:59.213Z,27.20
2018-05-08T16:41:26.641Z,27.00
2018-05-08T16:43:54.110Z,27.40
2018-05-08T16:46:21.578Z,27.60
2018-05-08T16:48:49.032Z,28.20
2018-05-08T16:51:16.522Z,28.70
2018-05-08T16:53:43.962Z,28.50
2018-05-08T16:56:12.174Z,29.50
2018-05-08T16:58:39.590Z,29.50
2018-05-08T17:01:07.120Z,29.40
2018-05-08T17:03:34.582Z,29.80
2018-05-08T17:06:02.059Z,29.80
2018-05-08T17:08:29.532Z,30.80
2018-05-08T17:10:56.950Z,31.40
2018-05-08T17:13:24.466Z,31.30
2018-05-08T17:15:51.886Z,31.70
2018-05-08T17:18:19.306Z,30.40
2018-05-08T17:20:46.770Z,30.80
2018-05-08T17:23:14.187Z,31.00
2018-05-08T17:25:41.909Z,32.10
2018-05-08T17:28:09.250Z,32.80
2018-05-08T17:30:37.443Z,31.70
2018-05-08T17:33:05.658Z,32.70
2018-05-08T17:35:33.082Z,32.60
2018-05-08T17:38:00.595Z,32.60
2018-05-08T17:40:28.022Z,33.40
2018-05-08T17:42:55.535Z,33.60
2018-05-08T17:45:22.972Z,34.30
2018-05-08T17:47:50.480Z,34.30
2018-05-08T17:50:18.647Z,36.00
2018-05-08T17:52:46.839Z,37.80
2018-05-08T17:55:14.322Z,37.70
2018-05-08T17:57:41.790Z,38.20
2018-05-08T18:00:09.216Z,38.50
2018-05-08T18:02:36.731Z,39.50
2018-05-08T18:05:04.150Z,39.10
2018-05-08T18:07:31.646Z,39.40
2018-05-08T18:09:59.833Z,40.40
2018-05-08T18:12:28.054Z,40.70
2018-05-08T18:14:55.519Z,40.70
2018-05-08T18:17:23.052Z,41.10
2018-05-08T18:19:50.559Z,41.90
2018-05-08T18:22:18.750Z,43.20
2018-05-08T18:24:46.220Z,43.10
2018-05-08T18:27:13.690Z,43.20
2018-05-08T18:29:41.154Z,43.30
2018-05-08T18:32:08.570Z,43.40
2018-05-08T18:34:36.101Z,43.50
2018-05-08T18:37:03.562Z,44.20
2018-05-08T18:39:31.031Z,45.10
2018-05-08T18:41:58.499Z,45.70
2018-05-08T18:44:25.922Z,45.70
2018-05-08T18:46:53.338Z,45.40
2018-05-08T18:49:20.860Z,45.30
2018-05-08T18:51:48.177Z,45.10
2018-05-08T18:54:15.608Z,45.30
2018-05-08T18:56:43.074Z,45.50
2018-05-08T18:59:10.490Z,45.80
2018-05-08T19:01:37.910Z,46.10
2018-05-08T19:04:05.334Z,46.60
2018-05-08T19:06:32.764Z,46.70
2018-05-08T19:09:00.170Z,46.90
2018-05-08T19:11:33.135Z,47.40
2018-05-08T19:14:01.330Z,48.40
2018-05-08T19:16:28.751Z,48.40
2018-05-08T19:19:01.843Z,49.00
2018-05-08T19:21:29.261Z,49.50
2018-05-08T19:24:03.127Z,50.10
2018-05-08T19:26:30.605Z,50.10
2018-05-08T19:29:04.410Z,50.50
2018-05-08T19:31:31.834Z,50.50
2018-05-08T19:34:00.031Z,50.70
2018-05-08T19:36:33.769Z,51.00
2018-05-08T19:39:01.279Z,51.00
2018-05-08T19:41:28.615Z,50.80
2018-05-08T19:43:56.033Z,50.80
2018-05-08T19:46:23.455Z,51.00
2018-05-08T19:48:50.873Z,50.90
2018-05-08T19:51:18.295Z,51.30
2018-05-08T19:53:45.714Z,51.70
2018-05-08T19:56:13.902Z,51.40
2018-05-08T19:58:42.088Z,51.70
2018-05-08T20:01:10.274Z,52.00
2018-05-08T20:03:38.454Z,52.30
2018-05-08T20:06:05.878Z,52.10
2018-05-08T20:08:33.302Z,52.80
2018-05-08T20:11:01.494Z,54.20
2018-05-08T20:13:29.677Z,55.00
2018-05-08T20:15:57.863Z,55.20
2018-05-08T20:18:26.046Z,54.90
2018-05-08T20:20:54.247Z,55.00
2018-05-08T20:23:22.421Z,55.80
2018-05-08T20:25:50.619Z,55.60
2018-05-08T20:28:18.802Z,56.90
2018-05-08T20:30:47.102Z,56.90
2018-05-08T20:33:15.198Z,57.10
2018-05-08T20:35:42.623Z,57.00
2018-05-08T20:38:10.146Z,57.40
2018-05-08T20:40:37.610Z,57.80
2018-05-08T20:43:05.030Z,58.30
2018-05-08T20:45:32.561Z,59.00
2018-05-08T20:47:59.974Z,58.90
2018-05-08T20:50:27.402Z,59.10
2018-05-08T20:52:54.819Z,59.50
2018-05-08T20:55:22.254Z,59.70
2018-05-08T20:57:49.671Z,60.30
2018-05-08T21:00:17.864Z,60.90
2018-05-08T21:02:46.050Z,61.20
2018-05-08T21:05:14.245Z,61.10
2018-05-08T21:07:41.658Z,61.00
2018-05-08T21:10:09.096Z,61.40
2018-05-08T21:12:36.521Z,61.30
2018-05-08T21:15:04.868Z,61.40
2018-05-08T21:17:32.285Z,61.40
2018-05-08T21:19:59.706Z,61.80
2018-05-08T21:22:27.135Z,61.50
2018-05-08T21:24:55.359Z,62.10
2018-05-08T21:27:22.771Z,62.00
2018-05-08T21:29:55.893Z,62.10
2018-05-08T21:32:24.077Z,62.20
2018-05-08T21:34:52.271Z,62.30
2018-05-08T21:37:20.494Z,62.20
2018-05-08T21:39:48.040Z,62.10
2018-05-08T21:42:15.418Z,62.70
2018-05-08T21:44:42.842Z,63.30
2018-05-08T21:47:10.263Z,63.90
2018-05-08T21:49:37.678Z,63.10
2018-05-08T21:52:05.134Z,62.80
2018-05-08T21:54:32.566Z,62.60
2018-05-08T21:57:00.035Z,62.50
2018-05-08T21:59:27.459Z,62.70
2018-05-08T22:01:54.883Z,62.80
2018-05-08T22:04:22.294Z,62.60
2018-05-08T22:06:49.812Z,62.30
2018-05-08T22:09:17.973Z,62.50
2018-05-08T22:11:46.186Z,62.60
2018-05-08T22:14:13.616Z,62.60
2018-05-08T22:16:41.030Z,62.50
2018-05-08T22:19:08.446Z,62.70
2018-05-08T22:21:35.870Z,61.80
2018-05-08T22:24:03.334Z,61.70
2018-05-08T22:26:30.806Z,61.60
2018-05-08T22:28:58.270Z,61.60
2018-05-08T22:31:25.693Z,62.10
2018-05-08T22:33:53.211Z,62.10
2018-05-08T22:36:20.679Z,62.10
2018-05-08T22:38:48.147Z,62.10
2018-05-08T22:41:15.619Z,61.80
2018-05-08T22:43:43.035Z,62.10
2018-05-08T22:46:10.458Z,62.80
2018-05-08T22:48:37.931Z,63.30
2018-05-08T22:51:05.359Z,63.20
2018-05-08T22:53:32.872Z,63.40
2018-05-08T22:56:00.304Z,63.40
2018-05-08T22:58:27.719Z,63.20
2018-05-08T23:00:55.151Z,64.00
2018-05-08T23:03:23.362Z,64.70
2018-05-08T23:05:50.798Z,64.60
2018-05-08T23:08:19.030Z,65.40
2018-05-08T23:10:46.485Z,65.40
2018-05-08T23:13:13.902Z,65.50
2018-05-08T23:15:41.426Z,66.20
2018-05-08T23:18:08.938Z,66.40
2018-05-08T23:20:36.367Z,66.80
2018-05-08T23:23:03.783Z,66.70
2018-05-08T23:25:31.210Z,66.90
2018-05-08T23:27:58.630Z,67.20
2018-05-08T23:30:26.056Z,67.70
2018-05-08T23:32:53.478Z,67.70
2018-05-08T23:35:21.682Z,67.90
2018-05-08T23:37:49.859Z,68.00
2018-05-08T23:40:18.050Z,68.10
2018-05-08T23:42:46.233Z,67.90
2018-05-08T23:45:14.426Z,68.30
2018-05-08T23:47:42.619Z,68.80
2018-05-08T23:50:10.826Z,69.00
2018-05-08T23:52:38.295Z,69.00
2018-05-08T23:55:05.714Z,68.80
2018-05-08T23:57:33.227Z,68.80
